Weather at Bristol Airport

Public forecast

Using degrees Celsius for public forecast. Weather courtesy of forecast.io.

Current aviation weather report (METAR) for Bristol Airport

2024/07/17 18:20 (retrieved 16 minutes ago)

EGGD 171820Z AUTO 21008KT 170V250 9999 NCD 19/14 Q1020

Aviation forecast (TAF) for Bristol Airport

2024/07/17 18:06 (retrieved 30 minutes ago)

TAF EGGD 171655Z 1718/1818 21005KT 9999 FEW045 PROB30 TEMPO 1800/1806 8000 BKN005